Time;durP1;ratioP1;P1;durP2;ratioP2;P2;SDS_P1;SDS_P2;PMS_P1;PMS_P2;Temp;Humidity;BMP_temperature;BMP_pressure;BME280_temperature;BME280_humidity;BME280_pressure;Samples;Min_cycle;Max_cycle;Signal;HPM_P1;HPM_P2
2024/01/25 00:01:09;;;;;;;15.88;4.53;;;9.40;1.00;;;;;;7378255;19;21497;-70
2024/01/25 00:03:39;;;;;;;19.27;5.05;;;9.40;1.00;;;;;;7377282;19;20018;-70
2024/01/25 00:06:12;;;;;;;12.82;4.13;;;9.50;1.00;;;;;;7379703;19;20045;-71
2024/01/25 00:08:42;;;;;;;25.88;4.93;;;9.50;1.00;;;;;;7378687;19;20383;-70
2024/01/25 00:11:12;;;;;;;22.77;4.82;;;9.60;1.00;;;;;;7378949;19;20013;-70
2024/01/25 00:13:42;;;;;;;19.42;4.93;;;9.50;1.00;;;;;;7378441;19;20034;-70
2024/01/25 00:16:12;;;;;;;22.35;4.75;;;9.50;1.00;;;;;;7378688;19;20038;-70
2024/01/25 00:18:42;;;;;;;19.10;3.97;;;9.40;1.00;;;;;;7380380;19;20026;-70
2024/01/25 00:21:15;;;;;;;23.67;4.93;;;9.50;1.00;;;;;;7379080;19;20053;-70
2024/01/25 00:23:45;;;;;;;17.83;4.28;;;9.40;1.00;;;;;;7379987;19;20471;-70
2024/01/25 00:26:16;;;;;;;20.17;4.20;;;9.40;1.00;;;;;;7378240;19;20014;-73
2024/01/25 00:28:46;;;;;;;23.98;5.65;;;9.30;1.00;;;;;;7379830;19;20018;-70
2024/01/25 00:31:16;;;;;;;25.05;4.78;;;9.50;1.00;;;;;;7377497;19;20007;-70
2024/01/25 00:33:46;;;;;;;24.33;5.00;;;9.40;1.00;;;;;;7378577;19;20034;-70
2024/01/25 00:36:20;;;;;;;29.33;4.95;;;9.50;1.00;;;;;;7377727;19;20007;-70
2024/01/25 00:38:51;;;;;;;20.42;5.05;;;9.50;1.00;;;;;;7381406;19;24193;-70
2024/01/25 00:41:22;;;;;;;17.25;4.28;;;9.40;1.00;;;;;;7380172;19;20014;-70
2024/01/25 00:43:53;;;;;;;18.98;4.57;;;9.40;1.00;;;;;;7378999;19;20521;-70
2024/01/25 00:46:23;;;;;;;16.40;4.30;;;9.40;1.00;;;;;;7379453;19;20006;-70
2024/01/25 00:48:54;;;;;;;22.67;5.63;;;9.50;1.00;;;;;;7380364;19;20006;-70
2024/01/25 00:51:28;;;;;;;18.45;4.72;;;9.50;1.00;;;;;;7370780;19;20014;-69
2024/01/25 00:53:58;;;;;;;19.45;4.10;;;9.60;1.00;;;;;;7378093;19;20011;-70
2024/01/25 00:56:29;;;;;;;20.48;4.82;;;9.60;1.00;;;;;;7378332;19;20007;-70
2024/01/25 00:58:59;;;;;;;20.50;5.00;;;9.60;1.00;;;;;;7378756;19;20048;-70
2024/01/25 01:01:30;;;;;;;22.83;5.00;;;9.70;1.00;;;;;;7376778;19;20006;-70
2024/01/25 01:04:01;;;;;;;19.33;5.05;;;9.60;1.00;;;;;;7378723;19;20014;-70
2024/01/25 01:06:35;;;;;;;20.33;5.75;;;9.70;1.00;;;;;;7377864;19;20014;-71
2024/01/25 01:09:05;;;;;;;23.17;5.03;;;9.60;1.00;;;;;;7377403;19;20014;-70
2024/01/25 01:11:35;;;;;;;16.95;4.65;;;9.60;1.00;;;;;;7375697;19;20011;-70
2024/01/25 01:14:05;;;;;;;19.25;4.25;;;9.60;1.00;;;;;;7377541;19;20015;-70
2024/01/25 01:16:36;;;;;;;23.67;4.97;;;9.70;1.00;;;;;;7374515;19;20007;-70
2024/01/25 01:19:07;;;;;;;17.77;4.80;;;9.60;1.00;;;;;;7377272;19;20485;-69
2024/01/25 01:21:43;;;;;;;17.77;5.40;;;9.70;1.00;;;;;;7375002;19;20036;-70
2024/01/25 01:24:16;;;;;;;24.05;5.25;;;9.70;1.00;;;;;;7377756;19;20357;-70
2024/01/25 01:26:48;;;;;;;23.83;4.37;;;9.70;1.00;;;;;;7376243;19;20007;-70
2024/01/25 01:29:19;;;;;;;19.85;4.47;;;9.60;1.00;;;;;;7377705;19;20021;-70
2024/01/25 01:31:49;;;;;;;23.17;5.40;;;9.60;1.00;;;;;;7376274;19;20010;-69
2024/01/25 01:34:19;;;;;;;26.63;5.40;;;9.60;1.00;;;;;;7377255;19;20011;-70
2024/01/25 01:36:52;;;;;;;17.90;4.68;;;9.70;1.00;;;;;;7376325;19;20010;-70
2024/01/25 01:39:22;;;;;;;19.48;4.00;;;9.60;1.00;;;;;;7379857;19;20483;-69
2024/01/25 01:41:52;;;;;;;19.63;4.70;;;9.70;1.00;;;;;;7377249;19;20021;-70
2024/01/25 01:44:22;;;;;;;22.63;4.55;;;9.60;1.00;;;;;;7375194;19;20075;-70
2024/01/25 01:46:54;;;;;;;23.05;4.68;;;9.70;1.00;;;;;;7376647;19;20018;-70
2024/01/25 01:49:25;;;;;;;19.45;4.47;;;9.60;1.00;;;;;;7377695;19;20026;-69
2024/01/25 01:51:58;;;;;;;27.42;5.47;;;9.60;1.00;;;;;;7376842;19;20632;-69
2024/01/25 01:54:28;;;;;;;17.40;3.78;;;9.60;1.00;;;;;;7374298;19;20019;-70
2024/01/25 01:56:59;;;;;;;20.50;4.68;;;9.50;1.00;;;;;;7375909;19;20007;-69
2024/01/25 01:59:29;;;;;;;20.80;4.60;;;9.60;1.00;;;;;;7377238;19;20030;-70
2024/01/25 02:01:59;;;;;;;16.08;4.50;;;9.60;1.00;;;;;;7375393;19;20011;-69
2024/01/25 02:04:29;;;;;;;18.77;4.30;;;9.50;1.00;;;;;;7375572;19;20021;-69
2024/01/25 02:07:02;;;;;;;27.05;4.43;;;9.60;1.00;;;;;;7377079;19;20007;-70
2024/01/25 02:09:33;;;;;;;16.95;3.95;;;9.50;1.00;;;;;;7375582;19;20066;-69
2024/01/25 02:12:03;;;;;;;16.38;4.30;;;9.60;1.00;;;;;;7375959;19;20519;-68
2024/01/25 02:14:34;;;;;;;20.05;4.97;;;9.60;1.00;;;;;;7376303;19;20022;-70
2024/01/25 02:17:04;;;;;;;23.17;4.28;;;9.50;1.00;;;;;;7377869;19;20014;-69
2024/01/25 02:19:34;;;;;;;19.45;4.35;;;9.40;1.00;;;;;;7381803;19;20414;-69
2024/01/25 02:22:07;;;;;;;19.85;4.72;;;9.40;1.00;;;;;;7376824;19;20066;-69
2024/01/25 02:24:40;;;;;;;22.52;4.85;;;9.40;1.00;;;;;;7376338;19;20011;-69
2024/01/25 02:27:10;;;;;;;20.27;4.50;;;9.50;1.00;;;;;;7374519;19;20007;-68
2024/01/25 02:29:41;;;;;;;15.68;3.65;;;9.50;1.00;;;;;;7383068;19;20019;-69
2024/01/25 02:32:10;;;;;;;17.38;4.43;;;9.40;1.00;;;;;;7382686;19;20095;-69
2024/01/25 02:34:40;;;;;;;23.77;5.47;;;9.50;1.00;;;;;;7383277;19;20018;-68
2024/01/25 02:37:12;;;;;;;14.98;4.45;;;9.40;1.00;;;;;;7382860;19;20686;-69
2024/01/25 02:39:44;;;;;;;19.63;4.47;;;9.40;1.00;;;;;;7382663;19;20010;-71
2024/01/25 02:42:16;;;;;;;18.58;4.28;;;9.40;1.00;;;;;;7381967;19;20109;-70
2024/01/25 02:44:46;;;;;;;16.45;4.60;;;9.40;1.00;;;;;;7381334;19;20015;-70
2024/01/25 02:47:16;;;;;;;12.90;3.90;;;9.30;1.00;;;;;;7381674;19;20035;-70
2024/01/25 02:49:47;;;;;;;15.95;4.22;;;9.40;1.00;;;;;;7381477;19;20018;-72
2024/01/25 02:52:17;;;;;;;24.67;5.35;;;9.40;1.00;;;;;;7381310;19;20021;-69
2024/01/25 02:54:50;;;;;;;18.10;4.38;;;9.40;1.00;;;;;;7381667;19;20018;-70
2024/01/25 02:57:21;;;;;;;15.88;4.03;;;9.50;1.00;;;;;;7377838;19;20032;-70
2024/01/25 02:59:51;;;;;;;18.45;4.65;;;9.40;1.00;;;;;;7382195;19;20010;-70
2024/01/25 03:02:21;;;;;;;13.48;3.10;;;9.40;1.00;;;;;;7378934;19;20494;-70
2024/01/25 03:04:51;;;;;;;22.60;4.57;;;9.40;1.00;;;;;;7381316;19;20698;-70
2024/01/25 03:07:21;;;;;;;19.98;4.80;;;9.30;1.00;;;;;;7381819;19;20017;-70
2024/01/25 03:09:54;;;;;;;22.77;5.15;;;9.30;1.00;;;;;;7379660;19;20039;-70
2024/01/25 03:12:24;;;;;;;17.58;3.92;;;9.30;1.00;;;;;;7381496;19;20038;-70
2024/01/25 03:14:54;;;;;;;19.45;4.70;;;9.30;1.00;;;;;;7380247;19;20023;-70
2024/01/25 03:17:24;;;;;;;15.98;4.45;;;9.30;1.00;;;;;;7380242;19;20491;-70
2024/01/25 03:19:54;;;;;;;14.55;3.92;;;9.40;1.00;;;;;;7380349;19;20014;-70
2024/01/25 03:22:24;;;;;;;23.50;5.25;;;9.30;1.00;;;;;;7380938;19;20018;-70
2024/01/25 03:24:57;;;;;;;20.92;4.78;;;9.20;1.00;;;;;;7380747;19;20879;-70
2024/01/25 03:27:27;;;;;;;15.63;4.57;;;9.20;1.00;;;;;;7380856;19;22204;-70
2024/01/25 03:29:58;;;;;;;17.08;4.35;;;9.20;1.00;;;;;;7380065;19;20521;-71
2024/01/25 03:32:28;;;;;;;15.32;4.43;;;9.20;1.00;;;;;;7379015;19;20015;-70
2024/01/25 03:35:01;;;;;;;19.05;4.28;;;9.20;1.00;;;;;;7380867;19;20405;-70
2024/01/25 03:37:31;;;;;;;16.10;4.38;;;9.20;1.00;;;;;;7380325;19;20087;-70
2024/01/25 03:40:08;;;;;;;17.77;4.28;;;9.20;1.00;;;;;;7382219;19;20010;-70
2024/01/25 03:42:38;;;;;;;13.73;4.07;;;9.20;1.00;;;;;;7381627;19;20033;-69
2024/01/25 03:45:10;;;;;;;16.98;4.35;;;9.20;1.00;;;;;;7380871;19;20014;-70
2024/01/25 03:47:40;;;;;;;18.85;4.88;;;9.20;1.00;;;;;;7380643;19;20010;-70
2024/01/25 03:50:11;;;;;;;22.83;5.05;;;9.20;1.00;;;;;;7380425;19;20010;-70
2024/01/25 03:52:41;;;;;;;17.50;4.57;;;9.20;1.00;;;;;;7380227;19;20382;-69
2024/01/25 03:55:14;;;;;;;20.88;4.65;;;9.10;1.00;;;;;;7380653;19;20083;-70
2024/01/25 03:57:44;;;;;;;20.13;4.65;;;9.10;1.00;;;;;;7375156;19;20102;-70
2024/01/25 04:00:15;;;;;;;19.17;4.47;;;9.00;1.00;;;;;;7378031;19;20022;-69
2024/01/25 04:02:45;;;;;;;18.27;4.75;;;9.00;1.00;;;;;;7376395;19;20007;-70
2024/01/25 04:05:16;;;;;;;20.15;4.70;;;9.10;1.00;;;;;;7378572;19;20021;-70
2024/01/25 04:07:46;;;;;;;20.15;5.32;;;9.00;1.00;;;;;;7378662;19;20028;-69
2024/01/25 04:10:19;;;;;;;18.17;4.75;;;9.10;1.00;;;;;;7377681;19;20014;-70
2024/01/25 04:12:49;;;;;;;18.30;4.63;;;9.10;1.00;;;;;;7379476;19;20021;-71
2024/01/25 04:15:19;;;;;;;18.48;4.40;;;9.00;1.00;;;;;;7379284;19;20038;-70
2024/01/25 04:17:50;;;;;;;20.58;5.15;;;9.00;1.00;;;;;;7378565;19;20480;-70
2024/01/25 04:20:20;;;;;;;23.00;4.90;;;9.00;1.00;;;;;;7377290;19;20039;-69
2024/01/25 04:22:51;;;;;;;18.98;4.38;;;9.00;1.00;;;;;;7378660;19;20010;-68
2024/01/25 04:25:24;;;;;;;15.50;5.03;;;9.00;1.00;;;;;;7378436;19;20022;-69
2024/01/25 04:27:54;;;;;;;18.25;4.65;;;9.00;1.00;;;;;;7378550;19;20475;-70
2024/01/25 04:30:24;;;;;;;20.83;4.10;;;8.90;1.00;;;;;;7377557;19;20356;-69
2024/01/25 04:32:54;;;;;;;16.08;4.05;;;9.00;1.00;;;;;;7378325;19;20501;-70
2024/01/25 04:35:24;;;;;;;18.70;4.85;;;9.00;1.00;;;;;;7378691;19;20471;-70
2024/01/25 04:37:54;;;;;;;20.45;4.78;;;9.00;1.00;;;;;;7377283;19;20027;-69
2024/01/25 04:40:27;;;;;;;22.88;5.50;;;8.90;1.00;;;;;;7377942;19;20014;-69
2024/01/25 04:42:57;;;;;;;19.83;4.45;;;8.90;1.00;;;;;;7377497;19;20014;-69
2024/01/25 04:45:27;;;;;;;15.35;4.10;;;8.90;1.00;;;;;;7378452;19;20078;-69
2024/01/25 04:47:57;;;;;;;21.88;4.50;;;8.80;1.00;;;;;;7378404;19;20018;-69
2024/01/25 04:50:27;;;;;;;18.10;5.00;;;8.90;1.00;;;;;;7378958;19;20353;-69
2024/01/25 04:52:58;;;;;;;19.75;4.68;;;8.90;1.00;;;;;;7382880;19;20046;-69
2024/01/25 04:55:32;;;;;;;17.83;4.80;;;8.80;1.00;;;;;;7377984;19;20070;-68
2024/01/25 04:58:02;;;;;;;20.70;4.93;;;8.70;1.00;;;;;;7377502;19;20010;-68
2024/01/25 05:00:32;;;;;;;24.08;5.43;;;8.70;1.00;;;;;;7377532;19;20111;-69
2024/01/25 05:03:02;;;;;;;19.02;5.22;;;8.70;1.00;;;;;;7377378;19;20035;-69
2024/01/25 05:05:32;;;;;;;20.70;5.10;;;8.60;1.00;;;;;;7377519;19;20014;-69
2024/01/25 05:08:02;;;;;;;19.23;4.82;;;8.60;1.00;;;;;;7378275;19;20086;-69
2024/01/25 05:10:34;;;;;;;21.48;4.90;;;8.50;1.00;;;;;;7376528;19;20010;-68
2024/01/25 05:13:04;;;;;;;22.08;4.75;;;8.30;1.00;;;;;;7376823;19;20039;-69
2024/01/25 05:15:34;;;;;;;19.67;4.03;;;8.40;1.00;;;;;;7377733;19;20708;-68
2024/01/25 05:18:05;;;;;;;19.15;4.90;;;8.30;1.00;;;;;;7376928;19;20820;-69
2024/01/25 05:20:37;;;;;;;18.30;4.43;;;8.30;1.00;;;;;;7375989;19;20034;-68
2024/01/25 05:23:07;;;;;;;17.85;5.10;;;8.20;1.00;;;;;;7377723;19;20504;-69
2024/01/25 05:25:40;;;;;;;15.95;4.45;;;8.20;1.00;;;;;;7377394;19;20408;-69
2024/01/25 05:28:10;;;;;;;23.13;5.18;;;8.10;1.00;;;;;;7377437;19;20022;-68
2024/01/25 05:30:41;;;;;;;20.35;4.95;;;8.10;1.00;;;;;;7375562;19;20697;-69
2024/01/25 05:33:11;;;;;;;22.10;5.30;;;8.10;1.00;;;;;;7377189;19;20030;-69
2024/01/25 05:35:41;;;;;;;18.63;5.05;;;8.00;1.00;;;;;;7376884;19;20037;-69
2024/01/25 05:38:11;;;;;;;20.35;4.20;;;7.90;1.00;;;;;;7377717;19;20053;-69
2024/01/25 05:40:43;;;;;;;18.13;4.32;;;7.90;1.00;;;;;;7376851;19;20489;-68
2024/01/25 05:43:14;;;;;;;25.52;4.95;;;7.90;1.00;;;;;;7377367;19;20491;-68
2024/01/25 05:45:44;;;;;;;19.98;5.22;;;7.90;1.00;;;;;;7377097;19;20015;-69
2024/01/25 05:48:14;;;;;;;19.10;4.28;;;7.80;1.00;;;;;;7376973;19;20027;-70
2024/01/25 05:50:44;;;;;;;14.85;4.28;;;7.70;1.00;;;;;;7373349;19;20011;-70
2024/01/25 05:53:16;;;;;;;24.23;4.97;;;7.70;1.00;;;;;;7375933;19;20022;-69
2024/01/25 05:55:49;;;;;;;20.00;4.80;;;7.70;1.00;;;;;;7374543;19;20046;-68
2024/01/25 05:58:19;;;;;;;19.20;5.30;;;7.70;1.00;;;;;;7378542;19;20074;-69
2024/01/25 06:00:49;;;;;;;19.08;5.00;;;7.60;1.00;;;;;;7373052;19;20019;-69
2024/01/25 06:03:19;;;;;;;16.25;4.65;;;7.50;1.00;;;;;;7375306;19;20010;-69
2024/01/25 06:05:49;;;;;;;21.83;5.40;;;7.50;1.00;;;;;;7373674;19;20014;-69
2024/01/25 06:08:20;;;;;;;19.02;4.63;;;7.50;1.00;;;;;;7374258;19;20014;-69
2024/01/25 06:10:52;;;;;;;22.48;5.05;;;7.40;1.00;;;;;;7372474;19;20016;-69
2024/01/25 06:13:22;;;;;;;18.05;5.05;;;7.30;1.00;;;;;;7375036;19;20002;-70
2024/01/25 06:15:53;;;;;;;21.70;5.53;;;7.30;1.00;;;;;;7375273;19;20003;-69
2024/01/25 06:18:20;;;;;;;16.80;5.22;;;7.20;1.00;;;;;;7376534;19;20010;-69
2024/01/25 06:20:53;;;;;;;15.45;4.90;;;7.20;1.00;;;;;;7374360;19;20066;-69
2024/01/25 06:23:23;;;;;;;17.25;4.30;;;7.10;1.00;;;;;;7376419;19;20010;-68
2024/01/25 06:25:55;;;;;;;25.90;5.65;;;7.10;1.00;;;;;;7377317;19;20021;-69
2024/01/25 06:28:25;;;;;;;22.60;5.57;;;7.00;1.00;;;;;;7375188;19;20002;-69
2024/01/25 06:30:56;;;;;;;35.50;5.65;;;7.00;1.00;;;;;;7374702;19;20778;-70
2024/01/25 06:33:26;;;;;;;24.52;5.43;;;6.90;1.00;;;;;;7375520;19;20074;-69
2024/01/25 06:35:57;;;;;;;21.95;5.65;;;6.90;1.00;;;;;;7374272;19;20011;-68
2024/01/25 06:38:27;;;;;;;20.73;5.32;;;6.80;1.00;;;;;;7375237;19;20011;-69
2024/01/25 06:40:59;;;;;;;19.77;5.00;;;6.80;1.00;;;;;;7376836;19;20010;-69
2024/01/25 06:43:29;;;;;;;29.90;6.18;;;6.90;1.00;;;;;;7372773;19;20014;-70
2024/01/25 06:46:00;;;;;;;21.85;5.72;;;6.80;1.00;;;;;;7376345;19;20025;-69
2024/01/25 06:48:30;;;;;;;18.08;4.50;;;6.80;1.00;;;;;;7375167;19;20022;-70
2024/01/25 06:51:00;;;;;;;26.88;6.32;;;6.70;1.00;;;;;;7374118;19;20495;-69
2024/01/25 06:53:31;;;;;;;20.05;6.32;;;6.70;1.00;;;;;;7376445;19;20030;-68
2024/01/25 06:56:03;;;;;;;22.85;5.80;;;6.60;1.00;;;;;;7370348;19;20016;-69
2024/01/25 06:58:33;;;;;;;24.42;5.90;;;6.50;1.00;;;;;;7375560;19;20007;-68
2024/01/25 07:01:04;;;;;;;18.38;6.05;;;6.60;1.00;;;;;;7370271;19;20036;-69
2024/01/25 07:03:35;;;;;;;18.88;5.53;;;6.50;1.00;;;;;;7375042;19;20006;-69
2024/01/25 07:06:06;;;;;;;23.05;5.65;;;6.50;1.00;;;;;;7371717;19;20416;-69
2024/01/25 07:08:36;;;;;;;28.80;6.15;;;6.50;1.00;;;;;;7367971;19;20102;-69
2024/01/25 07:11:09;;;;;;;30.95;6.68;;;6.40;1.00;;;;;;7372965;19;20010;-70
2024/01/25 07:13:39;;;;;;;20.20;5.57;;;6.40;1.00;;;;;;7376729;19;20074;-70
2024/01/25 07:16:09;;;;;;;20.58;5.63;;;6.30;1.00;;;;;;7379587;19;20489;-70
2024/01/25 07:18:39;;;;;;;26.40;6.28;;;6.30;1.00;;;;;;7378303;19;20102;-69
2024/01/25 07:21:09;;;;;;;26.98;6.60;;;6.40;1.00;;;;;;7375793;19;20049;-69
2024/01/25 07:23:39;;;;;;;21.85;5.72;;;6.60;1.00;;;;;;7384269;19;20029;-69
2024/01/25 07:26:18;;;;;;;24.77;6.80;;;6.70;1.00;;;;;;7381375;19;20050;-69
2024/01/25 07:28:48;;;;;;;27.67;6.88;;;6.70;1.00;;;;;;7379397;19;20018;-69
2024/01/25 07:31:19;;;;;;;22.90;4.90;;;6.70;1.00;;;;;;7376873;19;20081;-70
2024/01/25 07:33:50;;;;;;;27.35;6.22;;;6.80;1.00;;;;;;7381156;19;20014;-70
2024/01/25 07:36:20;;;;;;;25.48;6.25;;;6.80;1.00;;;;;;7379779;19;20505;-70
2024/01/25 07:38:52;;;;;;;28.13;6.53;;;6.80;1.00;;;;;;7381236;19;20007;-70
2024/01/25 07:41:25;;;;;;;22.67;6.80;;;6.80;1.00;;;;;;7378831;19;20015;-70
2024/01/25 07:43:55;;;;;;;25.13;7.82;;;6.80;1.00;;;;;;7379610;19;20078;-70
2024/01/25 07:46:26;;;;;;;23.83;7.43;;;6.90;1.00;;;;;;7379998;19;20018;-70
2024/01/25 07:48:56;;;;;;;25.88;6.30;;;7.00;1.00;;;;;;7381378;19;20086;-69
2024/01/25 07:51:28;;;;;;;27.67;7.15;;;7.00;1.00;;;;;;7380154;19;20093;-70
2024/01/25 07:53:59;;;;;;;25.58;6.75;;;7.00;1.00;;;;;;7380626;19;20393;-69
2024/01/25 07:56:31;;;;;;;25.17;7.82;;;7.10;1.00;;;;;;7378639;19;20010;-70
2024/01/25 07:59:02;;;;;;;28.08;8.05;;;7.10;1.00;;;;;;7378996;19;20093;-70
2024/01/25 08:01:32;;;;;;;27.85;6.40;;;7.10;1.00;;;;;;7379409;19;20007;-70
2024/01/25 08:04:03;;;;;;;23.60;6.15;;;7.20;1.00;;;;;;7379692;19;20018;-70
2024/01/25 08:06:33;;;;;;;31.67;7.07;;;7.20;1.00;;;;;;7379996;19;20060;-70
2024/01/25 08:09:04;;;;;;;26.40;6.45;;;7.30;1.00;;;;;;7380195;19;20394;-70
2024/01/25 08:11:36;;;;;;;19.80;6.20;;;7.30;1.00;;;;;;7379897;19;20010;-69
2024/01/25 08:14:06;;;;;;;25.30;5.80;;;7.30;1.00;;;;;;7378720;19;20476;-70
2024/01/25 08:16:37;;;;;;;22.42;5.93;;;7.40;1.00;;;;;;7379648;19;20093;-70
2024/01/25 08:19:07;;;;;;;26.48;6.40;;;7.40;1.00;;;;;;7378460;19;20032;-70
2024/01/25 08:21:38;;;;;;;25.65;5.82;;;7.40;1.00;;;;;;7380021;19;20082;-70
2024/01/25 08:24:08;;;;;;;24.42;6.50;;;7.50;1.00;;;;;;7379871;19;20022;-69
2024/01/25 08:26:41;;;;;;;27.33;5.68;;;7.50;1.00;;;;;;7377327;19;20078;-68
2024/01/25 08:29:11;;;;;;;27.60;6.10;;;7.60;1.00;;;;;;7379329;19;20089;-68
2024/01/25 08:31:41;;;;;;;29.05;5.40;;;7.70;1.00;;;;;;7377303;19;20143;-69
2024/01/25 08:34:11;;;;;;;27.02;5.43;;;7.80;1.00;;;;;;7378263;19;20527;-69
2024/01/25 08:36:41;;;;;;;24.42;6.28;;;7.80;1.00;;;;;;7379198;19;20015;-69
2024/01/25 08:39:11;;;;;;;24.17;5.82;;;7.90;1.00;;;;;;7379198;19;20010;-69
2024/01/25 08:41:45;;;;;;;25.00;5.82;;;7.90;1.00;;;;;;7378196;19;20017;-69
2024/01/25 08:44:15;;;;;;;30.20;7.67;;;7.90;1.00;;;;;;7377071;19;20097;-69
2024/01/25 08:46:46;;;;;;;34.95;6.65;;;8.00;1.00;;;;;;7377393;19;20010;-69
2024/01/25 08:49:16;;;;;;;23.85;5.80;;;8.00;1.00;;;;;;7378196;19;20450;-69
2024/01/25 08:51:47;;;;;;;22.50;5.63;;;8.10;1.00;;;;;;7377860;19;20038;-70
2024/01/25 08:54:17;;;;;;;22.00;5.75;;;8.10;1.00;;;;;;7376484;19;20023;-70
2024/01/25 08:56:49;;;;;;;29.27;5.72;;;8.20;1.00;;;;;;7377940;19;20125;-70
2024/01/25 08:59:20;;;;;;;24.67;5.13;;;8.20;1.00;;;;;;7377855;19;20011;-69
2024/01/25 09:01:50;;;;;;;25.92;5.78;;;8.30;1.00;;;;;;7377749;19;20499;-69
2024/01/25 09:04:20;;;;;;;23.02;4.85;;;8.40;1.00;;;;;;7377321;19;20006;-69
2024/01/25 09:06:54;;;;;;;18.75;5.47;;;8.50;1.00;;;;;;7378339;19;20094;-69
2024/01/25 09:09:24;;;;;;;21.02;5.00;;;8.50;1.00;;;;;;7377567;19;20011;-70
2024/01/25 09:11:57;;;;;;;26.27;5.30;;;8.60;1.00;;;;;;7377900;19;20010;-70
2024/01/25 09:14:28;;;;;;;23.88;5.88;;;8.70;1.00;;;;;;7370987;19;20078;-68
2024/01/25 09:16:58;;;;;;;20.42;5.68;;;8.70;1.00;;;;;;7378836;19;20041;-68
2024/01/25 09:19:28;;;;;;;19.08;5.75;;;8.80;1.00;;;;;;7377431;19;20014;-70
2024/01/25 09:22:01;;;;;;;23.00;5.15;;;8.90;1.00;;;;;;7376809;19;20014;-74
2024/01/25 09:24:33;;;;;;;22.77;5.10;;;8.90;1.00;;;;;;7377067;19;20463;-70
2024/01/25 09:27:06;;;;;;;27.83;5.75;;;8.80;1.00;;;;;;7375057;19;20014;-69
2024/01/25 09:29:39;;;;;;;20.52;5.03;;;8.80;1.00;;;;;;7378311;19;20454;-69
2024/01/25 09:32:11;;;;;;;25.30;5.68;;;9.00;1.00;;;;;;7376886;19;20015;-69
2024/01/25 09:34:41;;;;;;;21.95;5.47;;;9.00;1.00;;;;;;7375620;19;20371;-70
2024/01/25 09:37:12;;;;;;;23.38;6.13;;;9.10;1.00;;;;;;7375771;19;20011;-69
2024/01/25 09:39:42;;;;;;;17.63;5.32;;;9.20;1.00;;;;;;7375960;19;20363;-69
2024/01/25 09:42:15;;;;;;;18.90;4.57;;;9.10;1.00;;;;;;7376326;19;20014;-70
2024/01/25 09:44:46;;;;;;;26.75;5.28;;;9.00;1.00;;;;;;7374941;19;20022;-69
2024/01/25 09:47:19;;;;;;;21.35;4.88;;;9.10;1.00;;;;;;7377283;19;20082;-69
2024/01/25 09:49:49;;;;;;;15.37;4.97;;;9.10;1.00;;;;;;7375723;19;20027;-70
2024/01/25 09:52:25;;;;;;;25.90;5.68;;;9.10;1.00;;;;;;7377289;19;20017;-69
2024/01/25 09:54:57;;;;;;;25.52;4.72;;;9.30;1.00;;;;;;7378190;19;20406;-69
2024/01/25 09:57:32;;;;;;;17.42;5.00;;;9.20;1.00;;;;;;7388128;19;20510;-70
2024/01/25 10:00:03;;;;;;;18.45;5.13;;;9.20;1.00;;;;;;7378818;19;20049;-70
2024/01/25 10:02:33;;;;;;;24.50;5.28;;;9.30;1.00;;;;;;7376541;19;19998;-70
2024/01/25 10:05:03;;;;;;;27.77;5.00;;;9.30;1.00;;;;;;7375699;19;20010;-70
2024/01/25 10:07:41;;;;;;;14.13;5.00;;;9.50;1.00;;;;;;7376773;19;20414;-70
2024/01/25 10:10:13;;;;;;;18.95;4.72;;;9.40;1.00;;;;;;7377613;19;20007;-70
2024/01/25 10:12:46;;;;;;;22.83;5.72;;;9.50;1.00;;;;;;7376942;19;20007;-70
2024/01/25 10:15:16;;;;;;;21.42;5.32;;;9.50;1.00;;;;;;7375324;19;20363;-70
2024/01/25 10:17:47;;;;;;;17.58;4.88;;;9.50;1.00;;;;;;7375315;19;20011;-69
2024/01/25 10:20:37;;;;;;;22.85;4.95;;;9.40;1.00;;;;;;7374788;19;20014;-68
2024/01/25 10:23:07;;;;;;;48.08;19.73;;;9.50;1.00;;;;;;7376580;19;20547;-69
2024/01/25 10:25:38;;;;;;;20.13;5.35;;;9.70;1.00;;;;;;7376144;19;20029;-69
2024/01/25 10:28:12;;;;;;;19.48;5.38;;;9.80;1.00;;;;;;7376283;19;20006;-70
2024/01/25 10:30:43;;;;;;;20.70;5.68;;;9.70;1.00;;;;;;7375892;19;20022;-69
2024/01/25 10:33:14;;;;;;;18.23;4.80;;;9.60;1.00;;;;;;7381606;19;20508;-71
2024/01/25 10:35:49;;;;;;;24.38;4.95;;;9.70;1.00;;;;;;7376725;19;20016;-67
2024/01/25 10:38:20;;;;;;;18.52;4.38;;;9.70;1.00;;;;;;7374431;19;20007;-68
2024/01/25 10:40:50;;;;;;;17.25;4.95;;;9.70;1.00;;;;;;7375157;19;20018;-69
2024/01/25 10:43:23;;;;;;;16.02;5.07;;;9.70;1.00;;;;;;7374210;19;20078;-68
2024/01/25 10:45:57;;;;;;;21.30;5.07;;;9.70;1.00;;;;;;7374723;19;20030;-69
2024/01/25 10:48:30;;;;;;;21.75;5.00;;;9.70;1.00;;;;;;7376202;19;20153;-70
2024/01/25 10:51:02;;;;;;;19.33;4.43;;;9.50;1.00;;;;;;7381449;19;20105;-68
2024/01/25 10:53:35;;;;;;;25.02;4.80;;;9.40;1.00;;;;;;7380531;19;20021;-68
2024/01/25 10:56:06;;;;;;;25.65;5.95;;;9.40;1.00;;;;;;7379853;19;20026;-69
2024/01/25 10:58:43;;;;;;;23.38;5.18;;;9.60;1.00;;;;;;7382091;19;20433;-69
2024/01/25 11:01:14;;;;;;;16.85;4.88;;;9.60;1.00;;;;;;7380227;19;20129;-71
2024/01/25 11:03:48;;;;;;;22.67;4.95;;;9.80;1.00;;;;;;7381120;19;20011;-69
2024/01/25 11:06:22;;;;;;;21.05;5.55;;;9.80;1.00;;;;;;7382870;19;20015;-68
2024/01/25 11:08:53;;;;;;;13.73;3.95;;;9.90;1.00;;;;;;7378964;19;20019;-69
2024/01/25 11:11:23;;;;;;;23.45;5.45;;;10.00;1.00;;;;;;7381882;19;20011;-69
2024/01/25 11:13:58;;;;;;;21.27;5.00;;;10.00;1.00;;;;;;7379933;19;20018;-69
2024/01/25 11:16:33;;;;;;;25.20;4.75;;;10.20;1.00;;;;;;7380649;19;20015;-69
2024/01/25 11:19:07;;;;;;;18.95;3.92;;;10.30;1.00;;;;;;7380835;19;20022;-69
2024/01/25 11:21:45;;;;;;;26.75;4.63;;;10.30;1.00;;;;;;7381048;19;20039;-69
2024/01/25 11:24:16;;;;;;;16.65;4.13;;;10.50;1.00;;;;;;7380977;19;20026;-69
2024/01/25 11:26:47;;;;;;;16.17;4.75;;;10.60;1.00;;;;;;7382475;19;20471;-69
2024/01/25 11:29:22;;;;;;;18.33;4.25;;;10.60;1.00;;;;;;7382061;19;20018;-70
2024/01/25 11:31:53;;;;;;;17.88;4.00;;;11.10;1.00;;;;;;7374150;19;20014;-69
2024/01/25 11:34:25;;;;;;;16.40;3.78;;;11.40;1.00;;;;;;7379434;19;20554;-69
2024/01/25 11:36:57;;;;;;;12.55;4.03;;;11.20;1.00;;;;;;7380287;19;20022;-68
2024/01/25 11:39:27;;;;;;;13.45;3.80;;;11.30;1.00;;;;;;7379544;19;20014;-69
2024/01/25 11:41:57;;;;;;;11.05;3.30;;;11.40;1.00;;;;;;7380195;19;20018;-71
2024/01/25 11:44:29;;;;;;;15.07;4.53;;;11.10;1.00;;;;;;7380559;19;20349;-68
2024/01/25 11:47:00;;;;;;;13.70;3.85;;;11.30;1.00;;;;;;7380186;19;20014;-69
2024/01/25 11:49:30;;;;;;;13.88;3.17;;;11.40;1.00;;;;;;7381349;19;20361;-68
2024/01/25 11:52:02;;;;;;;17.23;4.25;;;11.10;1.00;;;;;;7378861;19;20019;-69
2024/01/25 11:54:32;;;;;;;14.57;3.83;;;11.30;1.00;;;;;;7379649;19;20006;-70
2024/01/25 11:57:02;;;;;;;9.95;2.70;;;11.10;1.00;;;;;;7379646;19;20027;-69
2024/01/25 11:59:35;;;;;;;15.98;3.83;;;11.00;1.00;;;;;;7377357;19;20074;-70
2024/01/25 12:02:06;;;;;;;11.00;3.03;;;11.20;1.00;;;;;;7379156;19;20094;-69
2024/01/25 12:04:36;;;;;;;13.57;3.55;;;11.20;1.00;;;;;;7377896;19;20098;-69
2024/01/25 12:07:07;;;;;;;8.32;3.15;;;11.20;1.00;;;;;;7381847;19;20032;-70
2024/01/25 12:09:37;;;;;;;10.45;2.75;;;11.10;1.00;;;;;;7380124;19;20007;-70
2024/01/25 12:12:08;;;;;;;11.43;3.20;;;11.40;1.00;;;;;;7380217;19;20010;-70
2024/01/25 12:14:43;;;;;;;9.75;3.10;;;11.10;1.00;;;;;;7379758;19;20085;-70
2024/01/25 12:17:13;;;;;;;17.40;3.97;;;11.20;1.00;;;;;;7380781;19;20045;-69
2024/01/25 12:19:43;;;;;;;20.73;4.50;;;11.30;1.00;;;;;;7380322;19;20035;-69
2024/01/25 12:22:13;;;;;;;17.00;3.65;;;11.30;1.00;;;;;;7378520;19;20032;-70
2024/01/25 12:24:44;;;;;;;12.07;2.90;;;11.10;1.00;;;;;;7378844;19;20475;-69
2024/01/25 12:27:30;;;;;;;;;;;11.00;1.00;;;;;;7378445;19;20026;-70
2024/01/25 12:30:03;;;;;;;12.05;3.45;;;10.90;1.00;;;;;;7386463;19;19919;-67
2024/01/25 12:32:34;;;;;;;11.88;3.08;;;11.10;1.00;;;;;;7385646;19;20014;-71
2024/01/25 12:35:04;;;;;;;8.77;2.47;;;10.90;1.00;;;;;;7376459;19;20015;-69
2024/01/25 12:37:34;;;;;;;11.27;3.28;;;10.60;1.00;;;;;;7377125;19;20081;-69
2024/01/25 12:40:05;;;;;;;12.80;3.45;;;10.90;1.00;;;;;;7378243;19;20014;-69
2024/01/25 12:42:36;;;;;;;9.77;3.08;;;11.30;1.00;;;;;;7377347;19;20042;-69
2024/01/25 12:45:10;;;;;;;14.27;3.15;;;11.00;1.00;;;;;;7377599;19;20011;-69
2024/01/25 12:47:40;;;;;;;12.35;2.88;;;11.00;1.00;;;;;;7377800;19;20010;-69
2024/01/25 12:50:11;;;;;;;12.80;2.58;;;10.90;1.00;;;;;;7378833;19;20364;-68
2024/01/25 12:52:41;;;;;;;9.10;2.58;;;11.10;1.00;;;;;;7378500;19;20006;-69
2024/01/25 12:55:12;;;;;;;14.88;2.72;;;10.90;1.00;;;;;;7377092;19;20089;-68
2024/01/25 12:57:43;;;;;;;13.30;3.15;;;11.00;1.00;;;;;;7377139;19;20104;-70
2024/01/25 13:00:17;;;;;;;10.80;2.67;;;11.20;1.00;;;;;;7377669;19;20014;-69
2024/01/25 13:02:48;;;;;;;16.27;3.30;;;11.00;1.00;;;;;;7375707;19;20403;-70
2024/01/25 13:05:19;;;;;;;13.68;3.40;;;11.30;1.00;;;;;;7375803;19;20014;-69
2024/01/25 13:07:50;;;;;;;11.07;3.53;;;11.20;1.00;;;;;;7377943;19;20103;-69
2024/01/25 13:10:21;;;;;;;11.00;2.35;;;11.30;1.00;;;;;;7376898;19;20037;-69
2024/01/25 13:12:51;;;;;;;13.40;2.88;;;11.30;1.00;;;;;;7384080;19;20018;-69
2024/01/25 13:15:23;;;;;;;11.23;3.28;;;11.20;1.00;;;;;;7376595;19;20579;-69